Barton City, Michigan
Current Conditions -  °F | °C
As of 2:53 AM on Wednesday 22 Oct 2014 (Local Time) from KOSC Reporting Station
Overcast Overcast  
Wind Chill: 38°   Ceiling: 1900
Heat Index: 43°   Visibility: 10mi
Dew Point: 37°   Wind: 9mph
Humidity: 78%   Direction: 20°NNE
Pressure: 30.28"   Gusts: NA
Location:  44.68°N, 83.61°W
Report Text: KOSC 220653Z AUTO 02008KT 10SM OVC019 06/02 A3028 RMK AO2 T00610026
Loading
Personal Weather Stations






























Interactive Weather Map
Tropical Storm Tracking
New forecast layout! Learn more

10-Day Weather Forecast

Advertisements
Track Severe Weather on mobile